createdAt,value
2019-02-05T00:00:21.637Z,997.00
2019-02-05T00:00:59.702Z,996.93
2019-02-05T00:02:24.207Z,996.97
2019-02-05T00:03:21.205Z,996.94
2019-02-05T00:04:00.204Z,996.94
2019-02-05T00:05:00.203Z,996.90
2019-02-05T00:06:00.202Z,996.95
2019-02-05T00:07:07.636Z,996.97
2019-02-05T00:09:02.162Z,997.01
2019-02-05T00:10:00.701Z,997.11
2019-02-05T00:11:00.828Z,997.10
2019-02-05T00:12:04.209Z,997.09
2019-02-05T00:13:01.207Z,997.13
2019-02-05T00:14:01.201Z,997.13
2019-02-05T00:15:01.204Z,997.13
2019-02-05T00:16:22.714Z,997.16
2019-02-05T00:20:08.855Z,997.19
2019-02-05T00:21:29.862Z,997.22
2019-02-05T00:22:12.862Z,997.21
2019-02-05T00:23:08.861Z,997.25
2019-02-05T00:24:09.364Z,997.21
2019-02-05T00:25:09.359Z,997.20
2019-02-05T00:26:09.361Z,997.21
2019-02-05T00:27:09.358Z,997.23
2019-02-05T00:28:12.864Z,997.24
2019-02-05T00:29:10.816Z,997.27
2019-02-05T00:30:09.867Z,997.24
2019-02-05T00:31:30.866Z,997.22
2019-02-05T00:32:09.861Z,997.21
2019-02-05T00:33:34.861Z,997.24
2019-02-05T00:34:10.365Z,997.23
2019-02-05T00:35:10.359Z,997.22
2019-02-05T00:36:10.361Z,997.23
2019-02-05T00:37:10.860Z,997.16
2019-02-05T00:38:12.860Z,997.20
2019-02-05T00:40:46.817Z,997.21
2019-02-05T00:41:46.825Z,997.21
2019-02-05T00:42:46.818Z,997.21
2019-02-05T00:43:46.829Z,997.18
2019-02-05T00:44:50.824Z,997.21
2019-02-05T00:45:47.325Z,997.19
2019-02-05T00:46:47.324Z,997.18
2019-02-05T00:47:47.327Z,997.22
2019-02-05T00:50:22.045Z,997.18
2019-02-05T00:51:19.051Z,997.19
2019-02-05T00:52:19.052Z,997.19
2019-02-05T00:53:19.553Z,997.18
2019-02-05T00:54:19.552Z,997.16
2019-02-05T01:00:13.337Z,997.21
2019-02-05T01:01:22.848Z,997.19
2019-02-05T01:02:18.797Z,997.19
2019-02-05T01:02:59.803Z,997.15
2019-02-05T01:03:58.892Z,997.15
2019-02-05T01:05:12.844Z,997.19
2019-02-05T01:06:29.344Z,997.16
2019-02-05T01:06:58.846Z,997.11
2019-02-05T01:08:20.343Z,997.17
2019-02-05T01:09:26.344Z,997.21
2019-02-05T01:09:58.698Z,997.21
2019-02-05T01:10:59.344Z,997.22
2019-02-05T01:13:35.040Z,997.21
2019-02-05T01:14:35.048Z,997.22
2019-02-05T01:15:35.047Z,997.16
2019-02-05T01:16:38.482Z,997.13
2019-02-05T01:17:38.547Z,997.15
2019-02-05T01:18:35.547Z,997.08
2019-02-05T01:19:35.547Z,997.06
2019-02-05T01:23:41.689Z,997.06
2019-02-05T01:24:59.696Z,997.01
2019-02-05T01:25:38.696Z,997.02
2019-02-05T01:26:40.131Z,997.01
2019-02-05T01:27:40.135Z,996.97
2019-02-05T01:28:49.193Z,996.90
2019-02-05T01:29:39.195Z,996.87
2019-02-05T01:35:19.051Z,996.85
2019-02-05T01:36:19.059Z,996.85
2019-02-05T01:37:19.059Z,996.82
2019-02-05T01:38:19.063Z,996.82
2019-02-05T01:39:23.066Z,996.77
2019-02-05T01:40:40.559Z,996.75
2019-02-05T01:41:19.559Z,996.75
2019-02-05T01:42:19.559Z,996.74
2019-02-05T01:43:20.059Z,996.74
2019-02-05T01:44:45.067Z,996.75
2019-02-05T01:45:20.061Z,996.74
2019-02-05T01:46:20.059Z,996.76
2019-02-05T01:47:41.558Z,996.74
2019-02-05T01:48:20.560Z,996.72
2019-02-05T01:49:20.566Z,996.68
2019-02-05T01:50:25.506Z,996.69
2019-02-05T01:51:42.058Z,996.68
2019-02-05T01:52:43.501Z,996.67
2019-02-05T01:53:22.019Z,996.61
2019-02-05T01:54:21.058Z,996.61
2019-02-05T01:56:57.027Z,996.67
2019-02-05T02:04:27.639Z,996.76
2019-02-05T02:05:07.575Z,996.77
2019-02-05T02:06:10.143Z,996.83
2019-02-05T02:08:59.362Z,996.77
2019-02-05T02:09:38.362Z,996.76
2019-02-05T02:10:38.362Z,996.72
2019-02-05T02:13:15.024Z,996.73
2019-02-05T02:14:29.038Z,996.67
2019-02-05T02:15:15.031Z,996.70
2019-02-05T02:16:36.031Z,996.65
2019-02-05T02:17:18.031Z,996.67
2019-02-05T02:18:15.534Z,996.70
2019-02-05T02:19:15.531Z,996.74
2019-02-05T02:20:15.531Z,996.73
2019-02-05T02:24:22.752Z,996.62
2019-02-05T02:25:25.191Z,996.57
2019-02-05T02:26:22.756Z,996.57
2019-02-05T02:27:44.258Z,996.61
2019-02-05T02:28:47.279Z,996.61
2019-02-05T02:32:47.668Z,996.66
2019-02-05T02:35:02.090Z,996.72
2019-02-05T02:39:09.252Z,996.68
2019-02-05T02:43:09.064Z,996.66
2019-02-05T02:44:12.613Z,996.66
2019-02-05T02:45:09.072Z,996.66
2019-02-05T02:46:09.071Z,996.65
2019-02-05T02:47:09.576Z,996.65
2019-02-05T02:48:10.544Z,996.68
2019-02-05T02:49:09.571Z,996.61
2019-02-05T02:50:34.573Z,996.69
2019-02-05T02:51:09.569Z,996.66
2019-02-05T02:52:10.070Z,996.69
2019-02-05T02:53:31.067Z,996.66
2019-02-05T02:54:09.419Z,996.71
2019-02-05T02:55:14.506Z,996.67
2019-02-05T02:57:45.413Z,996.59
2019-02-05T03:01:52.094Z,996.54
2019-02-05T03:02:49.100Z,996.51
2019-02-05T03:03:49.094Z,996.49
2019-02-05T03:04:49.612Z,996.49
2019-02-05T03:05:49.592Z,996.48
2019-02-05T03:11:49.621Z,996.40
2019-02-05T03:12:53.129Z,996.34
2019-02-05T03:13:28.626Z,996.37
2019-02-05T03:14:29.130Z,996.39
2019-02-05T03:15:29.137Z,996.35
2019-02-05T03:16:29.136Z,996.39
2019-02-05T03:17:34.062Z,996.37
2019-02-05T03:18:29.627Z,996.38
2019-02-05T03:19:29.624Z,996.44
2019-02-05T03:20:29.626Z,996.49
2019-02-05T03:21:29.623Z,996.54
2019-02-05T03:22:33.126Z,996.55
2019-02-05T03:23:30.127Z,996.55
2019-02-05T03:24:30.127Z,996.50
2019-02-05T03:25:30.126Z,996.52
2019-02-05T03:26:51.633Z,996.56
2019-02-05T03:29:05.927Z,996.58
2019-02-05T03:31:37.391Z,996.58
2019-02-05T03:33:01.946Z,996.58
2019-02-05T03:33:37.407Z,996.57
2019-02-05T03:36:10.553Z,996.63
2019-02-05T03:37:09.120Z,996.61
2019-02-05T03:38:13.118Z,996.63
2019-02-05T03:39:09.618Z,996.63
2019-02-05T03:40:09.620Z,996.53
2019-02-05T03:41:09.618Z,996.55
2019-02-05T03:42:31.121Z,996.52
2019-02-05T03:43:34.617Z,996.51
2019-02-05T03:44:31.117Z,996.47
2019-02-05T03:45:10.118Z,996.45
2019-02-05T03:46:31.618Z,996.48
2019-02-05T03:47:13.051Z,996.52
2019-02-05T03:48:10.626Z,996.47
2019-02-05T03:52:38.805Z,996.56
2019-02-05T03:53:17.805Z,996.57
2019-02-05T03:55:53.619Z,996.62
2019-02-05T03:56:53.627Z,996.64
2019-02-05T03:58:16.087Z,996.62
2019-02-05T04:02:00.200Z,996.65
2019-02-05T04:03:00.207Z,996.68
2019-02-05T04:04:00.206Z,996.66
2019-02-05T04:05:00.751Z,996.70
2019-02-05T04:06:26.142Z,996.61
2019-02-05T04:07:00.707Z,996.66
2019-02-05T04:08:00.711Z,996.71
2019-02-05T04:10:32.429Z,996.76
2019-02-05T04:11:35.933Z,996.79
2019-02-05T04:12:32.446Z,996.74
2019-02-05T04:13:32.934Z,996.75
2019-02-05T04:17:39.225Z,996.75
2019-02-05T04:20:07.691Z,996.76
2019-02-05T04:23:03.046Z,996.72
2019-02-05T04:23:39.057Z,996.69
2019-02-05T04:24:39.055Z,996.70
2019-02-05T04:25:40.528Z,996.66
2019-02-05T04:26:39.553Z,996.70
2019-02-05T04:28:04.562Z,996.68
2019-02-05T04:28:39.553Z,996.68
2019-02-05T04:29:39.557Z,996.68
2019-02-05T04:31:13.035Z,996.70
2019-02-05T04:31:40.053Z,996.74
2019-02-05T04:32:40.063Z,996.75
2019-02-05T04:38:38.895Z,996.81
2019-02-05T04:39:21.901Z,996.78
2019-02-05T04:40:17.903Z,996.78
2019-02-05T04:41:18.401Z,996.72
2019-02-05T04:42:39.401Z,996.72
2019-02-05T04:43:39.401Z,996.71
2019-02-05T04:44:18.401Z,996.71
2019-02-05T04:45:33.414Z,996.72
2019-02-05T04:46:20.907Z,996.69
2019-02-05T04:47:18.900Z,996.76
2019-02-05T04:48:18.900Z,996.74
2019-02-05T04:50:54.626Z,996.65
2019-02-05T04:51:51.126Z,996.67
2019-02-05T04:54:23.341Z,996.66
2019-02-05T04:55:23.352Z,996.67
2019-02-05T04:56:30.288Z,996.69
2019-02-05T05:00:47.801Z,996.78
2019-02-05T05:01:30.295Z,996.83
2019-02-05T05:02:47.794Z,996.77
2019-02-05T05:04:59.518Z,996.84
2019-02-05T05:05:59.525Z,996.83
2019-02-05T05:11:41.049Z,996.78
2019-02-05T05:12:41.512Z,996.80
2019-02-05T05:13:38.011Z,996.73
2019-02-05T05:14:39.996Z,996.78
2019-02-05T05:15:38.508Z,996.75
2019-02-05T05:16:38.510Z,996.80
2019-02-05T05:18:09.010Z,996.79
2019-02-05T05:19:00.018Z,996.79
2019-02-05T05:19:39.006Z,996.76
2019-02-05T05:20:41.939Z,996.71
2019-02-05T05:21:39.004Z,996.69
2019-02-05T05:22:45.005Z,996.67
2019-02-05T05:23:45.104Z,996.66
2019-02-05T05:26:10.850Z,996.66
2019-02-05T05:27:31.856Z,996.69
2019-02-05T05:28:10.863Z,996.65
2019-02-05T05:34:10.762Z,996.71
2019-02-05T05:35:14.272Z,996.69
2019-02-05T05:35:49.769Z,996.70
2019-02-05T05:36:50.271Z,996.74
2019-02-05T05:37:50.281Z,996.77
2019-02-05T05:38:50.272Z,996.78
2019-02-05T05:41:25.623Z,996.82
2019-02-05T05:43:25.628Z,996.77
2019-02-05T05:46:22.345Z,996.72
2019-02-05T05:48:49.828Z,996.76
2019-02-05T05:49:49.828Z,996.78
2019-02-05T05:50:49.834Z,996.76
2019-02-05T05:51:54.763Z,996.74
2019-02-05T05:52:50.328Z,996.69
2019-02-05T05:53:30.794Z,996.71
2019-02-05T05:54:29.328Z,996.70
2019-02-05T05:55:29.333Z,996.72
2019-02-05T05:57:00.325Z,996.71
2019-02-05T05:57:29.825Z,996.71
2019-02-05T05:58:29.827Z,996.70
2019-02-05T05:59:50.831Z,996.73
2019-02-05T06:00:32.346Z,996.74
2019-02-05T06:04:37.375Z,996.77
2019-02-05T06:05:37.389Z,996.74
2019-02-05T06:06:38.314Z,996.74
2019-02-05T06:09:27.623Z,996.80
2019-02-05T06:13:34.289Z,996.83
2019-02-05T06:14:16.799Z,996.82
2019-02-05T06:15:13.298Z,996.83
2019-02-05T06:16:13.316Z,996.85
2019-02-05T06:20:41.766Z,996.89
2019-02-05T06:21:16.757Z,996.90
2019-02-05T06:24:09.348Z,996.96
2019-02-05T06:24:48.358Z,996.95
2019-02-05T06:25:52.354Z,996.93
2019-02-05T06:29:52.013Z,996.96
2019-02-05T06:30:55.508Z,996.98
2019-02-05T06:32:13.003Z,997.01
2019-02-05T06:33:13.970Z,997.00
2019-02-05T06:35:24.200Z,996.98
2019-02-05T06:36:34.137Z,996.98
2019-02-05T06:42:11.588Z,997.04
2019-02-05T06:42:58.482Z,997.03
2019-02-05T06:43:59.153Z,997.00
2019-02-05T06:45:13.155Z,996.99
2019-02-05T06:46:00.612Z,997.02
2019-02-05T06:47:24.150Z,997.05
2019-02-05T06:47:59.650Z,997.02
2019-02-05T06:49:00.626Z,997.04
2019-02-05T06:49:59.651Z,997.06
2019-02-05T06:52:35.435Z,997.11
2019-02-05T06:53:33.820Z,997.16
2019-02-05T06:56:24.101Z,997.24
2019-02-05T06:57:24.606Z,997.25
2019-02-05T06:58:07.112Z,997.24
2019-02-05T07:00:34.670Z,997.26
2019-02-05T07:01:35.582Z,997.27
2019-02-05T07:02:35.583Z,997.30
2019-02-05T07:03:39.588Z,997.32
2019-02-05T07:04:35.585Z,997.28
2019-02-05T07:05:57.099Z,997.33
2019-02-05T07:06:36.084Z,997.36
2019-02-05T07:07:36.081Z,997.37
2019-02-05T07:08:36.081Z,997.43
2019-02-05T07:09:41.015Z,997.48
2019-02-05T07:10:36.584Z,997.54
2019-02-05T07:11:57.584Z,997.52
2019-02-05T07:12:36.580Z,997.51
2019-02-05T07:13:58.295Z,997.49
2019-02-05T07:14:41.080Z,997.49
2019-02-05T07:15:38.014Z,997.48
2019-02-05T07:16:37.082Z,997.48
2019-02-05T07:17:48.931Z,997.50
2019-02-05T07:18:37.578Z,997.50
2019-02-05T07:19:36.925Z,997.44
2019-02-05T07:20:40.580Z,997.49
2019-02-05T07:21:38.079Z,997.44
2019-02-05T07:22:39.541Z,997.49
2019-02-05T07:23:59.079Z,997.52
2019-02-05T07:24:38.079Z,997.47
2019-02-05T07:25:42.080Z,997.51
2019-02-05T07:26:38.582Z,997.53
2019-02-05T07:27:38.581Z,997.51
2019-02-05T07:28:38.608Z,997.55
2019-02-05T07:29:38.579Z,997.52
2019-02-05T07:31:04.551Z,997.53
2019-02-05T07:31:41.151Z,997.53
2019-02-05T07:32:40.034Z,997.55
2019-02-05T07:33:39.084Z,997.56
2019-02-05T07:35:00.101Z,997.60
2019-02-05T07:35:39.585Z,997.68
2019-02-05T07:36:42.369Z,997.67
2019-02-05T07:37:39.579Z,997.65
2019-02-05T07:38:39.579Z,997.65
2019-02-05T07:39:40.079Z,997.67
2019-02-05T07:40:40.076Z,997.70
2019-02-05T07:41:40.155Z,997.68
2019-02-05T07:42:44.079Z,997.74
2019-02-05T07:43:40.078Z,997.78
2019-02-05T07:48:10.167Z,997.82
2019-02-05T07:48:45.168Z,997.87
2019-02-05T07:49:43.233Z,997.86
2019-02-05T07:50:43.733Z,997.89
2019-02-05T07:51:43.737Z,997.89
2019-02-05T07:52:48.707Z,997.88
2019-02-05T07:53:43.737Z,997.91
2019-02-05T07:54:45.667Z,997.92
2019-02-05T07:57:37.079Z,997.94
2019-02-05T07:58:20.092Z,997.93
2019-02-05T07:59:16.083Z,997.94
2019-02-05T08:00:22.586Z,997.93
2019-02-05T08:01:17.703Z,997.94
2019-02-05T08:03:51.517Z,997.95
2019-02-05T08:05:09.530Z,997.96
2019-02-05T08:06:09.523Z,997.93
2019-02-05T08:08:20.257Z,997.97
2019-02-05T08:09:45.281Z,997.98
2019-02-05T08:10:20.756Z,997.99
2019-02-05T08:11:20.756Z,998.03
2019-02-05T08:12:20.778Z,998.04
2019-02-05T08:13:20.758Z,998.05
2019-02-05T08:14:24.260Z,998.03
2019-02-05T08:15:21.256Z,998.01
2019-02-05T08:16:21.256Z,998.05
2019-02-05T08:17:21.256Z,998.03
2019-02-05T08:18:21.756Z,998.05
2019-02-05T08:19:27.891Z,998.04
2019-02-05T08:20:21.756Z,998.06
2019-02-05T08:21:42.761Z,998.08
2019-02-05T08:22:22.259Z,998.08
2019-02-05T08:23:44.699Z,998.09
2019-02-05T08:24:22.260Z,998.08
2019-02-05T08:26:00.756Z,998.05
2019-02-05T08:26:22.255Z,998.05
2019-02-05T08:29:21.668Z,998.00
2019-02-05T08:29:53.983Z,998.04
2019-02-05T08:32:29.619Z,998.04
2019-02-05T08:33:29.626Z,997.99
2019-02-05T08:34:29.627Z,998.01
2019-02-05T08:36:05.125Z,998.04
2019-02-05T08:36:54.623Z,998.05
2019-02-05T08:37:36.125Z,998.08
2019-02-05T08:38:30.131Z,998.08
2019-02-05T08:39:51.625Z,998.02
2019-02-05T08:40:30.632Z,998.04
2019-02-05T08:41:30.625Z,998.06
2019-02-05T08:42:35.132Z,998.09
2019-02-05T08:43:31.126Z,998.06
2019-02-05T08:44:31.125Z,998.03
2019-02-05T08:45:31.123Z,997.95
2019-02-05T08:46:31.127Z,998.01
2019-02-05T08:47:55.125Z,997.98
2019-02-05T08:48:33.092Z,998.00
2019-02-05T08:49:31.625Z,998.02
2019-02-05T08:50:31.624Z,998.02
2019-02-05T08:51:32.124Z,998.00
2019-02-05T08:52:56.624Z,997.94
2019-02-05T08:53:55.132Z,998.05
2019-02-05T08:54:32.122Z,998.01
2019-02-05T08:58:38.487Z,997.96
2019-02-05T08:59:36.293Z,998.00
2019-02-05T09:00:35.508Z,997.99
2019-02-05T09:01:36.286Z,997.98
2019-02-05T09:02:35.749Z,998.01
2019-02-05T09:03:40.286Z,998.03
2019-02-05T09:06:09.456Z,998.06
2019-02-05T09:10:14.330Z,998.14
2019-02-05T09:11:14.981Z,998.08
2019-02-05T09:12:17.966Z,998.09
2019-02-05T09:13:36.480Z,998.14
2019-02-05T09:14:19.480Z,998.13
2019-02-05T09:15:15.481Z,998.15
2019-02-05T09:16:15.984Z,998.18
2019-02-05T09:17:15.981Z,998.19
2019-02-05T09:18:15.988Z,998.20
2019-02-05T09:19:21.485Z,998.19
2019-02-05T09:20:37.479Z,998.21
2019-02-05T09:21:16.484Z,998.24
2019-02-05T09:22:16.479Z,998.23
2019-02-05T09:23:16.480Z,998.26
2019-02-05T09:24:20.479Z,998.27
2019-02-05T09:25:16.978Z,998.26
2019-02-05T09:26:37.979Z,998.26
2019-02-05T09:27:16.981Z,998.29
2019-02-05T09:28:17.478Z,998.29
2019-02-05T09:29:41.239Z,998.28
2019-02-05T09:30:17.480Z,998.33
2019-02-05T09:31:18.919Z,998.34
2019-02-05T09:34:10.149Z,998.42
2019-02-05T09:34:53.156Z,998.42
2019-02-05T09:35:49.156Z,998.40
2019-02-05T09:36:51.668Z,998.44
2019-02-05T09:37:50.590Z,998.45
2019-02-05T09:38:49.655Z,998.46
2019-02-05T09:39:55.655Z,998.45
2019-02-05T09:40:50.157Z,998.44
2019-02-05T09:41:52.163Z,998.43
2019-02-05T09:42:50.157Z,998.46
2019-02-05T09:44:11.157Z,998.49
2019-02-05T09:45:14.653Z,998.52
2019-02-05T09:46:11.657Z,998.55
2019-02-05T09:46:50.659Z,998.54
2019-02-05T09:47:50.655Z,998.55
2019-02-05T09:48:51.155Z,998.55
2019-02-05T09:49:51.157Z,998.55
2019-02-05T09:51:15.658Z,998.63
2019-02-05T09:51:51.181Z,998.65
2019-02-05T09:54:28.873Z,998.65
2019-02-05T09:56:57.844Z,998.67
2019-02-05T09:58:15.356Z,998.73
2019-02-05T09:58:54.354Z,998.67
2019-02-05T10:00:21.856Z,998.67
2019-02-05T10:00:54.857Z,998.64
2019-02-05T10:03:52.149Z,998.72
2019-02-05T10:04:50.590Z,998.70
2019-02-05T10:05:51.192Z,998.74
2019-02-05T10:06:51.676Z,998.71
2019-02-05T10:07:56.634Z,998.72
2019-02-05T10:08:30.682Z,998.76
2019-02-05T10:09:30.675Z,998.79
2019-02-05T10:10:52.179Z,998.72
2019-02-05T10:11:51.376Z,998.75
2019-02-05T10:12:31.182Z,998.79
2019-02-05T10:13:34.174Z,998.80
2019-02-05T10:14:52.175Z,998.80
2019-02-05T10:15:52.674Z,998.78
2019-02-05T10:16:34.609Z,998.81
2019-02-05T10:17:32.609Z,998.81
2019-02-05T10:20:06.236Z,998.84
2019-02-05T10:21:27.971Z,998.86
2019-02-05T10:22:08.422Z,998.82
2019-02-05T10:23:10.415Z,998.85
2019-02-05T10:24:10.971Z,998.84
2019-02-05T10:25:07.471Z,998.83
2019-02-05T10:26:07.477Z,998.83
2019-02-05T10:27:07.468Z,998.84
2019-02-05T10:28:32.404Z,998.85
2019-02-05T10:29:11.476Z,998.86
2019-02-05T10:30:28.295Z,998.91
2019-02-05T10:31:30.403Z,998.92
2019-02-05T10:32:07.977Z,998.90
2019-02-05T10:33:29.473Z,998.91
2019-02-05T10:35:43.226Z,998.92
2019-02-05T10:38:14.818Z,998.96
2019-02-05T10:39:38.825Z,998.93
2019-02-05T10:40:14.298Z,998.93
2019-02-05T10:41:15.327Z,998.87
2019-02-05T10:42:15.325Z,998.87
2019-02-05T10:43:15.329Z,998.89
2019-02-05T10:44:15.334Z,998.93
2019-02-05T10:45:18.826Z,998.94
2019-02-05T10:49:21.086Z,998.82
2019-02-05T10:51:54.315Z,998.83
2019-02-05T10:52:54.371Z,998.82
2019-02-05T10:53:54.321Z,998.88
2019-02-05T10:55:15.825Z,998.88
2019-02-05T10:55:58.320Z,998.90
2019-02-05T10:57:15.819Z,998.90
2019-02-05T10:57:54.288Z,998.89
2019-02-05T11:00:27.019Z,998.88
2019-02-05T11:01:30.017Z,998.86
2019-02-05T11:02:27.017Z,998.87
2019-02-05T11:03:27.017Z,998.85
2019-02-05T11:04:27.514Z,998.85
2019-02-05T11:08:35.661Z,998.91
2019-02-05T11:09:40.189Z,998.94
2019-02-05T11:10:34.392Z,998.93
2019-02-05T11:11:34.188Z,998.96
2019-02-05T11:12:38.188Z,998.93
2019-02-05T11:15:06.410Z,998.97
2019-02-05T11:16:29.426Z,998.95
2019-02-05T11:17:06.424Z,998.90
2019-02-05T11:20:02.385Z,998.90
2019-02-05T11:21:04.401Z,998.87
2019-02-05T11:21:42.834Z,998.86
2019-02-05T11:22:41.890Z,998.88
2019-02-05T11:24:06.389Z,998.89
2019-02-05T11:24:41.891Z,998.90
2019-02-05T11:26:05.334Z,998.88
2019-02-05T11:26:41.312Z,998.87
2019-02-05T11:28:02.888Z,998.84
2019-02-05T11:29:06.890Z,998.85
2019-02-05T11:31:13.747Z,998.85
2019-02-05T11:32:36.755Z,998.88
2019-02-05T11:33:34.761Z,998.88
2019-02-05T11:34:38.261Z,998.88
2019-02-05T11:35:13.472Z,998.94
2019-02-05T11:36:35.257Z,998.92
2019-02-05T11:37:14.261Z,998.94
2019-02-05T11:38:14.254Z,998.91
2019-02-05T11:41:13.666Z,998.89
2019-02-05T11:41:50.444Z,998.82
2019-02-05T11:42:50.446Z,998.83
2019-02-05T11:43:50.444Z,998.79
2019-02-05T11:44:54.444Z,998.79
2019-02-05T11:45:50.944Z,998.77
2019-02-05T11:46:50.946Z,998.80
2019-02-05T11:47:50.956Z,998.78
2019-02-05T11:50:26.660Z,998.76
2019-02-05T11:51:44.168Z,998.74
2019-02-05T11:52:26.101Z,998.74
2019-02-05T11:53:44.666Z,998.76
2019-02-05T11:54:22.905Z,998.76
2019-02-05T11:56:58.673Z,998.75
2019-02-05T12:01:05.611Z,998.67
2019-02-05T12:02:01.606Z,998.70
2019-02-05T12:03:02.156Z,998.67
2019-02-05T12:04:02.118Z,998.69
2019-02-05T12:05:02.129Z,998.69
2019-02-05T12:06:02.102Z,998.68
2019-02-05T12:07:05.603Z,998.71
2019-02-05T12:08:02.605Z,998.66
2019-02-05T12:09:02.604Z,998.59
2019-02-05T12:10:02.604Z,998.64
2019-02-05T12:11:23.168Z,998.64
2019-02-05T12:12:06.604Z,998.62
2019-02-05T12:18:25.776Z,998.59
2019-02-05T12:19:21.787Z,998.53
2019-02-05T12:20:25.221Z,998.59
2019-02-05T12:22:49.948Z,998.58
2019-02-05T12:23:35.515Z,998.57
2019-02-05T12:24:31.980Z,998.58
2019-02-05T12:25:33.009Z,998.59
2019-02-05T12:26:33.018Z,998.58
2019-02-05T12:27:33.015Z,998.56
2019-02-05T12:28:36.525Z,998.50
2019-02-05T12:29:33.019Z,998.52
2019-02-05T12:32:04.739Z,998.47
2019-02-05T12:33:04.755Z,998.44
2019-02-05T12:34:29.241Z,998.47
2019-02-05T12:35:05.242Z,998.44
2019-02-05T12:36:25.432Z,998.53
2019-02-05T12:37:27.695Z,998.54
2019-02-05T12:39:40.755Z,998.49
2019-02-05T12:40:37.303Z,998.47
2019-02-05T12:41:37.304Z,998.39
2019-02-05T12:42:37.803Z,998.36
2019-02-05T12:43:37.800Z,998.34
2019-02-05T12:44:41.803Z,998.38
2019-02-05T12:45:37.813Z,998.44
2019-02-05T12:46:40.736Z,998.46
2019-02-05T12:47:58.492Z,998.43
2019-02-05T12:50:13.220Z,998.37
2019-02-05T12:51:09.731Z,998.32
2019-02-05T12:52:09.739Z,998.27
2019-02-05T12:53:44.693Z,998.32
2019-02-05T12:54:10.227Z,998.27
2019-02-05T12:55:14.265Z,998.28
2019-02-05T12:56:14.231Z,998.32
2019-02-05T12:57:32.668Z,998.33
2019-02-05T12:58:10.727Z,998.33
2019-02-05T12:59:31.729Z,998.31
2019-02-05T13:00:24.728Z,998.33
2019-02-05T13:01:24.816Z,998.31
2019-02-05T13:02:14.224Z,998.31
2019-02-05T13:03:11.229Z,998.33
2019-02-05T13:04:32.225Z,998.34
2019-02-05T13:05:12.164Z,998.29
2019-02-05T13:07:46.308Z,998.29
2019-02-05T13:10:17.734Z,998.29
2019-02-05T13:13:11.087Z,998.27
2019-02-05T13:14:07.409Z,998.31
2019-02-05T13:14:47.093Z,998.26
2019-02-05T13:15:47.091Z,998.26
2019-02-05T13:18:22.825Z,998.27
2019-02-05T13:19:19.325Z,998.21
2019-02-05T13:20:40.323Z,998.26
2019-02-05T13:21:19.328Z,998.27
2019-02-05T13:22:42.258Z,998.26
2019-02-05T13:23:44.327Z,998.27
2019-02-05T13:24:40.823Z,998.26
2019-02-05T13:25:19.821Z,998.27
2019-02-05T13:27:52.050Z,998.24
2019-02-05T13:28:54.818Z,998.28
2019-02-05T13:30:13.055Z,998.25
2019-02-05T13:30:52.055Z,998.26
2019-02-05T13:31:51.652Z,998.25
2019-02-05T13:34:27.427Z,998.25
2019-02-05T13:35:24.385Z,998.28
2019-02-05T13:36:24.387Z,998.24
2019-02-05T13:37:24.885Z,998.32
2019-02-05T13:38:24.886Z,998.31
2019-02-05T13:39:24.884Z,998.26
2019-02-05T13:40:43.390Z,998.33
2019-02-05T13:41:25.385Z,998.28
2019-02-05T13:42:25.390Z,998.22
2019-02-05T13:43:27.825Z,998.22
2019-02-05T13:44:25.384Z,998.23
2019-02-05T13:45:24.980Z,998.26
2019-02-05T13:46:28.885Z,998.23
2019-02-05T13:47:26.881Z,998.21
2019-02-05T13:48:25.883Z,998.19
2019-02-05T13:49:26.385Z,998.19
2019-02-05T13:50:33.624Z,998.18
2019-02-05T13:51:29.527Z,998.22
2019-02-05T13:52:26.384Z,998.22
2019-02-05T13:53:26.989Z,998.23
2019-02-05T13:54:26.888Z,998.16
2019-02-05T13:55:26.224Z,998.17
2019-02-05T13:56:30.384Z,998.18
2019-02-05T13:58:59.106Z,998.17
2019-02-05T14:00:05.057Z,998.19
2019-02-05T14:01:20.438Z,998.19
2019-02-05T14:02:02.385Z,998.17
2019-02-05T14:03:20.618Z,998.19
2019-02-05T14:04:20.616Z,998.22
2019-02-05T14:05:13.615Z,998.18
2019-02-05T14:05:59.086Z,998.16
2019-02-05T14:07:00.119Z,998.21
2019-02-05T14:08:25.115Z,998.22
2019-02-05T14:09:10.316Z,998.23
2019-02-05T14:10:00.240Z,998.22
2019-02-05T14:11:02.617Z,998.26
2019-02-05T14:12:02.052Z,998.23
2019-02-05T14:13:02.074Z,998.28
2019-02-05T14:14:25.115Z,998.25
2019-02-05T14:15:00.616Z,998.28
2019-02-05T14:16:02.550Z,998.28
2019-02-05T14:17:22.119Z,998.25
2019-02-05T14:18:02.060Z,998.25
2019-02-05T14:19:26.116Z,998.35
2019-02-05T14:20:01.643Z,998.32
2019-02-05T14:21:22.629Z,998.34
2019-02-05T14:22:05.053Z,998.40
2019-02-05T14:23:01.619Z,998.36
2019-02-05T14:24:28.620Z,998.39
2019-02-05T14:25:02.111Z,998.38
2019-02-05T14:26:02.114Z,998.36
2019-02-05T14:27:02.118Z,998.39
2019-02-05T14:28:02.623Z,998.40
2019-02-05T14:29:06.613Z,998.44
2019-02-05T14:30:23.615Z,998.41
2019-02-05T14:31:02.624Z,998.42
2019-02-05T14:32:03.116Z,998.44
2019-02-05T14:33:03.117Z,998.45
2019-02-05T14:34:03.128Z,998.47
2019-02-05T14:35:06.613Z,998.49
2019-02-05T14:36:24.614Z,998.49
2019-02-05T14:37:03.622Z,998.50
2019-02-05T14:38:03.614Z,998.52
2019-02-05T14:39:03.614Z,998.55
2019-02-05T14:40:06.955Z,998.54
2019-02-05T14:41:25.119Z,998.59
2019-02-05T14:42:25.113Z,998.59
2019-02-05T14:43:25.114Z,998.59
2019-02-05T14:44:25.115Z,998.59
2019-02-05T14:45:06.613Z,998.61
2019-02-05T14:46:07.613Z,998.64
2019-02-05T14:47:06.075Z,998.63
2019-02-05T14:48:26.577Z,998.66
2019-02-05T14:49:26.115Z,998.63
2019-02-05T14:51:41.314Z,998.68
2019-02-05T14:52:36.849Z,998.69
2019-02-05T14:53:36.848Z,998.71
2019-02-05T14:54:37.350Z,998.70
2019-02-05T14:55:37.350Z,998.74
2019-02-05T14:56:41.350Z,998.74
2019-02-05T14:57:37.356Z,998.78
2019-02-05T15:01:44.483Z,998.83
2019-02-05T15:02:41.489Z,998.83
2019-02-05T15:03:48.925Z,998.81
2019-02-05T15:04:41.492Z,998.82
2019-02-05T15:06:02.992Z,998.79
2019-02-05T15:06:52.946Z,998.82
2019-02-05T15:07:42.009Z,998.82
2019-02-05T15:08:42.011Z,998.81
2019-02-05T15:09:55.988Z,998.82
2019-02-05T15:10:42.489Z,998.78
2019-02-05T15:11:42.488Z,998.81
2019-02-05T15:14:17.690Z,998.84
2019-02-05T15:15:17.701Z,998.82
2019-02-05T15:16:17.698Z,998.78
2019-02-05T15:17:17.699Z,998.85
2019-02-05T15:18:21.699Z,998.79
2019-02-05T15:19:18.198Z,998.83
2019-02-05T15:20:18.197Z,998.84
2019-02-05T15:21:18.202Z,998.78
2019-02-05T15:22:48.636Z,998.77
2019-02-05T15:23:22.707Z,998.74
2019-02-05T15:24:18.050Z,998.77
2019-02-05T15:25:18.698Z,998.75
2019-02-05T15:27:52.363Z,998.78
2019-02-05T15:29:00.427Z,998.85
2019-02-05T15:29:50.927Z,998.84
2019-02-05T15:30:50.518Z,998.84
2019-02-05T15:32:12.428Z,998.85
2019-02-05T15:32:51.428Z,998.85
2019-02-05T15:33:54.430Z,998.84
2019-02-05T15:34:51.425Z,998.84
2019-02-05T15:36:12.927Z,998.86
2019-02-05T15:36:51.929Z,998.85
2019-02-05T15:37:51.274Z,998.85
2019-02-05T15:38:55.427Z,998.85
2019-02-05T15:40:06.432Z,998.83
2019-02-05T15:40:52.430Z,998.81
2019-02-05T15:41:51.766Z,998.85
2019-02-05T15:42:52.425Z,998.81
2019-02-05T15:43:56.934Z,998.79
2019-02-05T15:44:52.927Z,998.81
2019-02-05T15:45:52.924Z,998.81
2019-02-05T15:46:52.407Z,998.82
2019-02-05T15:49:27.505Z,998.81
2019-02-05T15:50:25.121Z,998.84
2019-02-05T15:51:25.120Z,998.86
2019-02-05T15:52:25.120Z,998.84
2019-02-05T15:53:25.635Z,998.80
2019-02-05T15:54:28.686Z,998.80
2019-02-05T15:55:46.621Z,998.79
2019-02-05T15:56:25.623Z,998.80
2019-02-05T15:57:25.621Z,998.79
2019-02-05T15:58:26.120Z,998.77
2019-02-05T15:59:28.554Z,998.80
2019-02-05T16:00:28.666Z,998.80
2019-02-05T16:01:26.123Z,998.84